Weihnachten

Liebe Flugschüler, Charterer und Kunden.

Wir bedanken uns für die gute Zusammenarbeit.

Im Namen der gesamten Firma wünsche ich Ihnen und Ihren Familien eine wunderschöne Weihnachtszeit und einen guten Rutsch.

Auf ein gutes neues Jahr !!!

Ihr Sabionski Christian

Flugwetter Augsburg

[source: ADDS]
METAR
EDMA 151220Z 29007KT 250V340 9999 FEW027 BKN056 18/12 Q1015 =
TAF EDMA 151100Z 1512/1521 27007KT 9999 SCT020 TEMPO 1512/1518 SHRA BKN012CB BECMG 1519/1521 VRB03KT
TAF
TAF EDMA 151100Z 1512/1521 27007KT 9999 SCT020 TEMPO 1512/1518 SHRA BKN012CB BECMG 1519/1521 VRB03KT =
Cookies erleichtern die Bereitstellung unserer Dienste. Mit der Nutzung unserer Dienste erklären Sie sich damit einverstanden, dass wir Cookies verwenden.
Weitere Informationen Ok